Time;durP1;ratioP1;P1;durP2;ratioP2;P2;SDS_P1;SDS_P2;PMS_P1;PMS_P2;Temp;Humidity;BMP_temperature;BMP_pressure;BME280_temperature;BME280_humidity;BME280_pressure;Samples;Min_cycle;Max_cycle;Signal;HPM_P1;HPM_P2
2020/12/17 05:49:30;;;;;;;1999.90;999.90;;;2.60;99.90;;;;;;5108932;27;20569;-49
2020/12/17 05:52:11;;;;;;;1999.90;999.90;;;2.60;99.90;;;;;;5108152;28;20448;-49
2020/12/17 05:54:39;;;;;;;1999.90;999.90;;;2.60;99.90;;;;;;5104060;28;20429;-48
2020/12/17 05:57:12;;;;;;;1999.90;999.90;;;2.70;99.90;;;;;;5095115;28;20410;-49
2020/12/17 05:59:39;;;;;;;1999.90;999.90;;;2.70;99.90;;;;;;5103960;28;20429;-49
2020/12/17 06:02:28;;;;;;;1999.90;999.90;;;2.70;99.90;;;;;;5100245;28;20866;-48
2020/12/17 06:05:13;;;;;;;1999.90;999.90;;;2.70;99.90;;;;;;5097806;28;20434;-49
2020/12/17 06:07:50;;;;;;;1999.90;999.90;;;2.80;99.90;;;;;;5089405;28;20462;-49
2020/12/17 06:10:25;;;;;;;1999.90;999.90;;;2.80;99.90;;;;;;5101070;28;20883;-48
2020/12/17 06:12:56;;;;;;;1999.90;999.90;;;2.70;99.90;;;;;;5089668;28;20583;-49
2020/12/17 06:15:26;;;;;;;1999.90;999.90;;;2.70;99.90;;;;;;5099751;28;20433;-47
2020/12/17 06:17:57;;;;;;;1999.90;999.90;;;2.60;99.90;;;;;;5109141;28;20771;-55
2020/12/17 06:20:25;;;;;;;1999.90;999.90;;;2.60;99.90;;;;;;5108339;28;20454;-49
2020/12/17 06:23:00;;;;;;;1999.90;999.90;;;2.60;99.90;;;;;;5107688;28;20973;-50
2020/12/17 06:25:28;;;;;;;1999.90;999.90;;;2.50;99.90;;;;;;5107115;28;20453;-48
2020/12/17 06:27:54;;;;;;;1999.90;999.90;;;2.50;99.90;;;;;;5106530;28;20997;-49
2020/12/17 06:30:25;;;;;;;1999.90;999.90;;;2.50;99.90;;;;;;5109006;28;20424;-48
2020/12/17 06:33:05;;;;;;;1999.90;999.90;;;2.50;99.90;;;;;;5107081;28;20452;-48
2020/12/17 06:35:39;;;;;;;1999.90;999.90;;;2.50;99.90;;;;;;5095273;28;20413;-48
2020/12/17 06:38:15;;;;;;;1999.90;999.90;;;2.50;99.90;;;;;;5107900;28;20801;-48
2020/12/17 06:40:42;;;;;;;1999.90;999.90;;;2.50;99.90;;;;;;5107112;28;20401;-48
2020/12/17 06:43:12;;;;;;;1999.90;999.90;;;2.50;99.90;;;;;;5103109;28;20851;-49
2020/12/17 06:45:38;;;;;;;1999.90;999.90;;;2.50;99.90;;;;;;5100345;28;20460;-50
2020/12/17 06:48:41;;;;;;;1999.90;999.90;;;2.50;99.90;;;;;;5099925;28;20479;-48
2020/12/17 06:51:29;;;;;;;1999.90;999.90;;;2.40;99.90;;;;;;5099475;28;21159;-48
2020/12/17 06:53:55;;;;;;;1999.90;999.90;;;2.50;99.90;;;;;;5091162;28;20456;-48
2020/12/17 06:56:21;;;;;;;1999.90;999.90;;;2.50;99.90;;;;;;5095806;28;20476;-48
2020/12/17 06:58:47;;;;;;;1999.90;999.90;;;2.50;99.90;;;;;;5095991;28;20454;-48
2020/12/17 07:01:28;;;;;;;1999.90;999.90;;;2.50;99.90;;;;;;5090916;28;20199;-48
2020/12/17 07:03:54;;;;;;;1999.90;999.90;;;2.50;99.90;;;;;;5070915;28;20237;-48
2020/12/17 07:06:21;;;;;;;1999.90;999.90;;;2.50;99.90;;;;;;5071746;28;20419;-48
2020/12/17 07:08:55;;;;;;;1999.90;999.90;;;2.50;99.90;;;;;;5073177;28;20288;-48
2020/12/17 07:11:44;;;;;;;1999.90;999.90;;;2.50;99.90;;;;;;5074371;28;21359;-48
2020/12/17 07:14:26;;;;;;;1999.90;999.90;;;2.60;99.90;;;;;;5089277;28;20423;-48
2020/12/17 07:16:58;;;;;;;1999.90;999.90;;;2.60;99.90;;;;;;5087464;28;20414;-48
2020/12/17 07:19:44;;;;;;;1999.90;999.90;;;2.60;99.90;;;;;;5084241;28;20488;-48
2020/12/17 07:22:14;;;;;;;1999.90;999.90;;;2.60;99.90;;;;;;5087226;28;20467;-47
2020/12/17 07:24:42;;;;;;;1999.90;999.90;;;2.60;99.90;;;;;;5087589;28;20414;-47
2020/12/17 07:27:11;;;;;;;1999.90;999.90;;;2.60;99.90;;;;;;5089573;28;20432;-48
2020/12/17 07:29:41;;;;;;;1999.90;999.90;;;2.70;99.90;;;;;;5089642;28;20414;-47
2020/12/17 07:32:36;;;;;;;1999.90;999.90;;;2.70;99.90;;;;;;5084151;28;20434;-47
2020/12/17 07:35:08;;;;;;;1999.90;999.90;;;2.70;99.90;;;;;;5069335;28;20771;-48
2020/12/17 07:37:48;;;;;;;1999.90;999.90;;;2.70;99.90;;;;;;5068029;28;20411;-48
2020/12/17 07:40:17;;;;;;;1999.90;999.90;;;2.70;99.90;;;;;;5071431;28;20942;-47
2020/12/17 07:42:58;;;;;;;1999.90;999.90;;;2.70;99.90;;;;;;5071081;28;20431;-47
2020/12/17 07:45:36;;;;;;;1999.90;999.90;;;2.60;99.90;;;;;;5070715;28;20422;-49
2020/12/17 07:48:01;;;;;;;1999.90;999.90;;;2.70;99.90;;;;;;5070577;28;21091;-48
2020/12/17 07:50:38;;;;;;;1999.90;999.90;;;2.70;99.90;;;;;;5071578;28;20419;-46
2020/12/17 07:53:23;;;;;;;1999.90;999.90;;;2.70;99.90;;;;;;5070584;28;20259;-47
2020/12/17 07:55:50;;;;;;;1999.90;999.90;;;2.80;99.90;;;;;;5076200;28;20761;-48
2020/12/17 07:58:16;;;;;;;1999.90;999.90;;;2.80;99.90;;;;;;5090576;28;20426;-49
2020/12/17 08:00:42;;;;;;;1999.90;999.90;;;2.90;99.90;;;;;;5091016;28;20420;-47
2020/12/17 08:03:08;;;;;;;1999.90;999.90;;;2.90;99.90;;;;;;5090698;28;20522;-47
2020/12/17 08:05:34;;;;;;;1999.90;999.90;;;2.90;99.90;;;;;;5084637;28;20486;-47
2020/12/17 08:07:59;;;;;;;1999.90;999.90;;;2.90;99.90;;;;;;5083489;28;20913;-47
2020/12/17 08:10:25;;;;;;;1999.90;999.90;;;2.90;99.90;;;;;;5080583;28;20598;-48
2020/12/17 08:12:51;;;;;;;1999.90;999.90;;;2.90;99.90;;;;;;5077665;28;20301;-49
2020/12/17 08:15:16;;;;;;;1999.90;999.90;;;3.00;99.90;;;;;;5079981;28;20254;-47
2020/12/17 08:17:47;;;;;;;1999.90;999.90;;;3.00;99.90;;;;;;5070559;28;20192;-47
2020/12/17 08:20:16;;;;;;;1999.90;999.90;;;3.10;99.90;;;;;;5069476;28;20184;-48
2020/12/17 08:22:43;;;;;;;1999.90;999.90;;;3.10;99.90;;;;;;5068918;28;21025;-49
2020/12/17 08:25:09;;;;;;;1999.90;999.90;;;3.10;99.90;;;;;;5068779;28;20419;-47
2020/12/17 08:27:34;;;;;;;1999.90;999.90;;;3.20;99.90;;;;;;5068842;28;20831;-47
2020/12/17 08:30:00;;;;;;;1999.90;999.90;;;3.20;99.90;;;;;;5085980;28;20202;-49
2020/12/17 08:32:30;;;;;;;1999.90;999.90;;;3.20;99.90;;;;;;5086625;28;20218;-47
2020/12/17 08:34:57;;;;;;;1999.90;999.90;;;3.10;99.90;;;;;;5088427;28;20160;-48
2020/12/17 08:37:23;;;;;;;1999.90;999.90;;;3.10;99.90;;;;;;5086457;28;20922;-47
2020/12/17 08:40:06;;;;;;;1999.90;999.90;;;3.20;99.90;;;;;;5086258;28;20412;-48
2020/12/17 08:42:34;;;;;;;1999.90;999.90;;;3.20;99.90;;;;;;5068162;28;20462;-49
2020/12/17 08:45:05;;;;;;;1999.90;999.90;;;3.20;99.90;;;;;;5082532;28;20878;-49
2020/12/17 08:47:33;;;;;;;1999.90;999.90;;;3.20;99.90;;;;;;5074825;28;20994;-47
2020/12/17 08:50:01;;;;;;;1999.90;999.90;;;3.20;99.90;;;;;;5088379;28;20451;-47
2020/12/17 08:52:28;;;;;;;1999.90;999.90;;;3.30;99.90;;;;;;5088089;28;20450;-51
2020/12/17 08:55:05;;;;;;;1999.90;999.90;;;3.30;99.90;;;;;;5073729;28;20427;-47
2020/12/17 08:57:31;;;;;;;1999.90;999.90;;;3.40;99.90;;;;;;5070676;28;20628;-49
2020/12/17 08:59:57;;;;;;;1999.90;999.90;;;3.30;99.90;;;;;;5082638;28;20450;-48
2020/12/17 09:02:24;;;;;;;1999.90;999.90;;;3.40;99.90;;;;;;5075818;28;20469;-49
2020/12/17 09:04:57;;;;;;;1999.90;999.90;;;3.40;99.90;;;;;;5076683;28;20200;-48
2020/12/17 09:07:31;;;;;;;1999.90;999.90;;;3.40;99.90;;;;;;5076086;28;20437;-45
2020/12/17 09:10:13;;;;;;;1999.90;999.90;;;3.50;99.90;;;;;;5084253;28;21310;-47
2020/12/17 09:12:39;;;;;;;1999.90;999.90;;;3.50;99.90;;;;;;5083184;28;20465;-48
2020/12/17 15:03:01;;;;;;;1999.90;999.90;;;4.10;99.90;;;;;;5102179;27;20557;-52
2020/12/17 15:05:27;;;;;;;1999.90;999.90;;;4.10;99.90;;;;;;5085760;28;20428;-51
2020/12/17 15:07:53;;;;;;;1999.90;999.90;;;4.10;99.90;;;;;;5090891;28;20423;-52
2020/12/17 15:10:18;;;;;;;1999.90;999.90;;;4.00;99.90;;;;;;5090350;28;20429;-52
2020/12/17 15:12:44;;;;;;;1999.90;999.90;;;4.10;99.90;;;;;;5089910;28;20538;-52
2020/12/17 15:15:10;;;;;;;1999.90;999.90;;;4.20;99.90;;;;;;5089229;28;20177;-52
2020/12/17 15:17:36;;;;;;;1999.90;999.90;;;4.20;99.90;;;;;;5089087;28;20176;-51
2020/12/17 15:20:01;;;;;;;1999.90;999.90;;;4.10;99.90;;;;;;5082572;28;20470;-52
2020/12/17 15:22:27;;;;;;;1999.90;999.90;;;4.10;99.90;;;;;;5089382;28;20217;-52
2020/12/17 15:24:52;;;;;;;1999.90;999.90;;;4.10;99.90;;;;;;5086541;28;20463;-52
2020/12/17 15:27:18;;;;;;;1999.90;999.90;;;4.20;99.90;;;;;;5084539;28;20180;-52
2020/12/17 15:29:44;;;;;;;1999.90;999.90;;;4.10;99.90;;;;;;5081529;28;20289;-52
2020/12/17 15:32:09;;;;;;;1999.90;999.90;;;4.10;99.90;;;;;;5080957;28;20306;-51
2020/12/17 15:34:35;;;;;;;1999.90;999.90;;;4.10;99.90;;;;;;5084201;28;20193;-51
2020/12/17 15:37:01;;;;;;;1999.90;999.90;;;4.10;99.90;;;;;;5079470;28;20841;-52
2020/12/17 15:39:26;;;;;;;1999.90;999.90;;;4.20;99.90;;;;;;5086395;28;20216;-51
2020/12/17 15:41:53;;;;;;;1999.90;999.90;;;4.30;99.90;;;;;;5083371;28;20212;-51
2020/12/17 15:44:19;;;;;;;1999.90;999.90;;;4.20;99.90;;;;;;5083226;28;20188;-51
2020/12/17 15:46:48;;;;;;;1999.90;999.90;;;4.20;99.90;;;;;;5081673;28;21133;-51
2020/12/17 15:49:13;;;;;;;1999.90;999.90;;;4.20;99.90;;;;;;5080974;28;20262;-52
2020/12/17 15:51:39;;;;;;;1999.90;999.90;;;4.20;99.90;;;;;;5082829;28;20442;-51
2020/12/17 15:54:05;;;;;;;1999.90;999.90;;;4.10;99.90;;;;;;5085081;28;20200;-52
2020/12/17 15:56:30;;;;;;;1999.90;999.90;;;4.20;99.90;;;;;;5094202;28;20198;-52
2020/12/17 15:58:56;;;;;;;1999.90;999.90;;;4.20;99.90;;;;;;5077709;28;20216;-51
2020/12/17 16:01:22;;;;;;;1999.90;999.90;;;4.20;99.90;;;;;;5079773;28;20209;-52
2020/12/17 16:03:47;;;;;;;1999.90;999.90;;;4.20;99.90;;;;;;5081737;28;20190;-51
2020/12/17 16:06:16;;;;;;;1999.90;999.90;;;4.10;99.90;;;;;;5081618;28;20176;-51
2020/12/17 16:08:46;;;;;;;1999.90;999.90;;;4.20;99.90;;;;;;5078781;28;20601;-52
2020/12/17 16:11:15;;;;;;;1999.90;999.90;;;4.30;99.90;;;;;;5082779;28;20433;-52
2020/12/17 16:13:42;;;;;;;1999.90;999.90;;;4.30;99.90;;;;;;5072024;28;20443;-52
2020/12/17 16:16:12;;;;;;;1999.90;999.90;;;4.40;99.90;;;;;;5068480;28;20526;-52
2020/12/17 16:18:38;;;;;;;1999.90;999.90;;;4.50;99.90;;;;;;5064803;28;20957;-52
2020/12/17 16:21:10;;;;;;;1999.90;999.90;;;4.40;99.90;;;;;;5065482;28;20474;-52
2020/12/17 16:23:36;;;;;;;1999.90;999.90;;;4.30;99.90;;;;;;5066424;28;20451;-51
2020/12/17 16:26:01;;;;;;;1999.90;999.90;;;4.40;99.90;;;;;;5064267;28;20477;-51
2020/12/17 16:28:27;;;;;;;1999.90;999.90;;;4.40;99.90;;;;;;5065661;28;20208;-52
2020/12/17 16:30:56;;;;;;;1999.90;999.90;;;4.50;99.90;;;;;;5065922;28;20193;-52
2020/12/17 16:33:21;;;;;;;1999.90;999.90;;;4.50;99.90;;;;;;5066598;28;20654;-52
2020/12/17 16:35:50;;;;;;;1999.90;999.90;;;4.40;99.90;;;;;;5068099;28;20507;-53
2020/12/17 16:38:15;;;;;;;1999.90;999.90;;;4.50;99.90;;;;;;5067977;28;20243;-52
2020/12/17 16:40:41;;;;;;;1999.90;999.90;;;4.60;99.90;;;;;;5065237;28;20424;-52
2020/12/17 16:43:06;;;;;;;1999.90;999.90;;;4.60;99.90;;;;;;5064478;28;20693;-52
2020/12/17 16:45:34;;;;;;;1999.90;999.90;;;4.70;99.90;;;;;;5100142;27;20272;-52
2020/12/17 16:48:00;;;;;;;1999.90;999.90;;;4.70;99.90;;;;;;5067351;28;20724;-52
2020/12/17 16:50:26;;;;;;;1999.90;999.90;;;4.70;99.90;;;;;;5067779;28;20464;-52
2020/12/17 16:52:51;;;;;;;1999.90;999.90;;;4.80;99.90;;;;;;5062207;28;20427;-52
2020/12/17 16:55:17;;;;;;;1999.90;999.90;;;4.80;99.90;;;;;;5067056;28;20489;-52
2020/12/17 16:57:43;;;;;;;1999.90;999.90;;;4.80;99.90;;;;;;5066867;28;20220;-52
2020/12/17 17:00:09;;;;;;;1999.90;999.90;;;4.90;99.90;;;;;;5069830;28;20441;-51
2020/12/17 17:02:37;;;;;;;1999.90;999.90;;;4.90;99.90;;;;;;5068475;28;20219;-52
2020/12/17 17:05:06;;;;;;;1999.90;999.90;;;5.00;99.90;;;;;;5067892;28;20722;-52
2020/12/17 17:07:32;;;;;;;1999.90;999.90;;;5.00;99.90;;;;;;5068063;28;20447;-52
2020/12/17 17:09:58;;;;;;;1999.90;999.90;;;5.00;99.90;;;;;;5068406;28;20532;-52
2020/12/17 17:12:24;;;;;;;1999.90;999.90;;;5.00;99.90;;;;;;5067902;28;20572;-52
2020/12/17 17:14:50;;;;;;;1999.90;999.90;;;4.90;99.90;;;;;;5070023;28;20173;-51
2020/12/17 17:17:17;;;;;;;1999.90;999.90;;;4.80;99.90;;;;;;5069436;28;20189;-51
2020/12/17 17:19:43;;;;;;;1999.90;999.90;;;4.80;99.90;;;;;;5068201;28;20459;-51
2020/12/17 17:22:09;;;;;;;1999.90;999.90;;;4.80;99.90;;;;;;5068422;28;20455;-51
2020/12/17 17:24:35;;;;;;;1999.90;999.90;;;4.70;99.90;;;;;;5064253;28;20443;-51
2020/12/17 17:27:01;;;;;;;1999.90;999.90;;;4.80;99.90;;;;;;5068749;28;20439;-51
2020/12/17 17:29:27;;;;;;;1999.90;999.90;;;4.70;99.90;;;;;;5069815;28;20450;-51
2020/12/17 17:31:57;;;;;;;1999.90;999.90;;;4.70;99.90;;;;;;5068059;28;20185;-51
2020/12/17 17:34:24;;;;;;;1999.90;999.90;;;4.60;99.90;;;;;;5070090;28;20574;-51
2020/12/17 17:36:50;;;;;;;1999.90;999.90;;;4.70;99.90;;;;;;5068414;28;20471;-52
2020/12/17 17:39:16;;;;;;;1999.90;999.90;;;4.70;99.90;;;;;;5066845;28;20470;-51
2020/12/17 17:41:48;;;;;;;1999.90;999.90;;;4.70;99.90;;;;;;5067537;28;20462;-51
2020/12/17 17:44:14;;;;;;;1999.90;999.90;;;4.70;99.90;;;;;;5070635;28;20415;-51
2020/12/17 17:46:40;;;;;;;1999.90;999.90;;;4.60;99.90;;;;;;5068700;28;20994;-51
2020/12/17 17:49:05;;;;;;;1999.90;999.90;;;4.50;99.90;;;;;;5070418;28;20284;-52
2020/12/17 17:51:31;;;;;;;1999.90;999.90;;;4.50;99.90;;;;;;5066736;28;20186;-51
2020/12/17 17:53:56;;;;;;;1999.90;999.90;;;4.50;99.90;;;;;;5071905;28;20245;-51
2020/12/17 17:56:22;;;;;;;1999.90;999.90;;;4.40;99.90;;;;;;5063903;28;20205;-51
2020/12/17 17:58:48;;;;;;;1999.90;999.90;;;4.50;99.90;;;;;;5066732;28;20689;-52
2020/12/17 18:01:18;;;;;;;1999.90;999.90;;;4.50;99.90;;;;;;5066151;28;20280;-51
2020/12/17 18:03:44;;;;;;;1999.90;999.90;;;4.40;99.90;;;;;;5067020;28;20187;-52
2020/12/17 18:06:10;;;;;;;1999.90;999.90;;;4.40;99.90;;;;;;5067844;28;20439;-52
2020/12/17 18:08:36;;;;;;;1999.90;999.90;;;4.40;99.90;;;;;;5066113;28;20211;-51
2020/12/17 18:11:01;;;;;;;1999.90;999.90;;;4.40;99.90;;;;;;5063543;28;20534;-54
2020/12/17 18:13:27;;;;;;;1999.90;999.90;;;4.40;99.90;;;;;;5082227;28;20212;-51
2020/12/17 18:15:52;;;;;;;1999.90;999.90;;;4.40;99.90;;;;;;5077894;28;20189;-50
2020/12/17 18:18:18;;;;;;;1999.90;999.90;;;4.50;99.90;;;;;;5065109;28;20635;-51
2020/12/17 18:20:44;;;;;;;1999.90;999.90;;;4.60;99.90;;;;;;5064416;28;20202;-51
2020/12/17 18:23:09;;;;;;;1999.90;999.90;;;4.50;99.90;;;;;;5063408;28;20757;-51
2020/12/17 18:25:35;;;;;;;1999.90;999.90;;;4.60;99.90;;;;;;5057825;28;20269;-51
2020/12/17 18:28:01;;;;;;;1999.90;999.90;;;4.60;99.90;;;;;;5064573;28;20193;-51
2020/12/17 18:30:26;;;;;;;1999.90;999.90;;;4.60;99.90;;;;;;5065592;28;20283;-53
2020/12/17 18:32:52;;;;;;;1999.90;999.90;;;4.60;99.90;;;;;;5066027;28;20525;-50
2020/12/17 18:35:18;;;;;;;1999.90;999.90;;;4.70;99.90;;;;;;5065721;28;20189;-50
2020/12/17 18:37:43;;;;;;;1999.90;999.90;;;4.70;99.90;;;;;;5064947;28;20240;-51
2020/12/17 18:40:09;;;;;;;1999.90;999.90;;;4.60;99.90;;;;;;5063819;28;20573;-51
2020/12/17 18:42:34;;;;;;;1999.90;999.90;;;4.70;99.90;;;;;;5063973;28;20292;-54
2020/12/17 18:45:00;;;;;;;1999.90;999.90;;;4.80;99.90;;;;;;5056701;28;20186;-50
2020/12/17 18:47:26;;;;;;;1999.90;999.90;;;4.80;99.90;;;;;;5065099;28;20209;-50
2020/12/17 18:49:57;;;;;;;1999.90;999.90;;;4.70;99.90;;;;;;5066304;28;20240;-52
2020/12/17 18:52:22;;;;;;;1999.90;999.90;;;4.70;99.90;;;;;;5064574;28;20193;-50
2020/12/17 18:54:48;;;;;;;1999.90;999.90;;;4.80;99.90;;;;;;5065950;28;20439;-50
2020/12/17 18:57:14;;;;;;;1999.90;999.90;;;4.80;99.90;;;;;;5065940;28;20292;-51
2020/12/17 18:59:40;;;;;;;1999.90;999.90;;;4.90;99.90;;;;;;5063818;28;20231;-51
2020/12/17 19:02:06;;;;;;;1999.90;999.90;;;4.90;99.90;;;;;;5061528;28;20979;-51
2020/12/17 19:04:33;;;;;;;1999.90;999.90;;;5.00;99.90;;;;;;5064265;28;20673;-51
2020/12/17 19:06:58;;;;;;;1999.90;999.90;;;5.00;99.90;;;;;;5063235;28;20964;-51
2020/12/17 19:09:24;;;;;;;1999.90;999.90;;;5.00;99.90;;;;;;5064475;28;20514;-51
2020/12/17 19:11:50;;;;;;;1999.90;999.90;;;5.00;99.90;;;;;;5046540;28;20222;-51
2020/12/17 19:14:15;;;;;;;1999.90;999.90;;;5.10;99.90;;;;;;5062635;28;20186;-51
2020/12/17 19:16:42;;;;;;;1999.90;999.90;;;5.10;99.90;;;;;;5062469;28;20272;-51
2020/12/17 19:19:08;;;;;;;1999.90;999.90;;;5.00;99.90;;;;;;5061887;28;20205;-50
2020/12/17 19:21:36;;;;;;;1999.90;999.90;;;5.00;99.90;;;;;;5063961;28;20472;-50
2020/12/17 19:24:05;;;;;;;1999.90;999.90;;;4.80;99.90;;;;;;5061204;28;21162;-50
2020/12/17 19:26:37;;;;;;;1999.90;999.90;;;4.90;99.90;;;;;;5064993;28;20960;-51
2020/12/17 19:29:06;;;;;;;1999.90;999.90;;;4.80;99.90;;;;;;5064722;28;20459;-50
2020/12/17 19:31:32;;;;;;;1999.90;999.90;;;4.80;99.90;;;;;;5063466;28;20815;-49
2020/12/17 19:33:57;;;;;;;1999.90;999.90;;;4.70;99.90;;;;;;5063328;28;20447;-48
2020/12/17 19:36:24;;;;;;;1999.90;999.90;;;4.60;99.90;;;;;;5065727;28;20436;-50
2020/12/17 19:38:50;;;;;;;1999.90;999.90;;;4.60;99.90;;;;;;5062198;28;20339;-50
2020/12/17 19:41:22;;;;;;;1999.90;999.90;;;4.60;99.90;;;;;;5063572;28;20558;-52
2020/12/17 19:43:49;;;;;;;1999.90;999.90;;;4.50;99.90;;;;;;5063142;28;20182;-50
2020/12/17 19:46:16;;;;;;;1999.90;999.90;;;4.40;99.90;;;;;;5063193;28;20435;-52
2020/12/17 19:48:43;;;;;;;1999.90;999.90;;;4.40;99.90;;;;;;5067153;28;20596;-52
2020/12/17 19:51:08;;;;;;;1999.90;999.90;;;4.40;99.90;;;;;;5068298;28;20445;-52
2020/12/17 19:53:34;;;;;;;1999.90;999.90;;;4.30;99.90;;;;;;5067264;28;20443;-51
2020/12/17 19:56:01;;;;;;;1999.90;999.90;;;4.30;99.90;;;;;;5068088;28;20189;-50
2020/12/17 19:59:03;;;;;;;1999.90;999.90;;;4.40;99.90;;;;;;5066680;28;21031;-51
2020/12/17 20:02:10;;;;;;;1999.90;999.90;;;4.40;99.90;;;;;;5066511;28;20899;-51
2020/12/17 20:04:48;;;;;;;1999.90;999.90;;;4.40;99.90;;;;;;5038067;28;20468;-51
2020/12/17 20:08:01;;;;;;;1999.90;999.90;;;4.40;99.90;;;;;;5072875;28;20785;-51
2020/12/17 20:10:29;;;;;;;1999.90;999.90;;;4.50;99.90;;;;;;5079897;28;21123;-51
2020/12/17 20:12:56;;;;;;;1999.90;999.90;;;4.40;99.90;;;;;;5064955;28;20439;-51
2020/12/17 20:15:22;;;;;;;1999.90;999.90;;;4.30;99.90;;;;;;5067945;28;20258;-51
2020/12/17 20:17:48;;;;;;;1999.90;999.90;;;4.20;99.90;;;;;;5083453;28;20435;-51
2020/12/17 20:20:13;;;;;;;1999.90;999.90;;;4.10;99.90;;;;;;5067989;28;20448;-51
2020/12/17 20:22:39;;;;;;;1999.90;999.90;;;4.00;99.90;;;;;;5066485;28;20209;-51
2020/12/17 20:25:05;;;;;;;1999.90;999.90;;;3.90;99.90;;;;;;5065704;28;20182;-51
2020/12/17 20:27:31;;;;;;;1999.90;999.90;;;4.00;99.90;;;;;;5067926;28;20264;-51
2020/12/17 20:29:56;;;;;;;1999.90;999.90;;;4.00;99.90;;;;;;5069152;28;20288;-51
2020/12/17 20:32:23;;;;;;;1999.90;999.90;;;4.10;99.90;;;;;;5066326;28;20218;-52
2020/12/17 20:34:49;;;;;;;1999.90;999.90;;;4.20;99.90;;;;;;5063429;28;20830;-49
2020/12/17 20:37:15;;;;;;;1999.90;999.90;;;4.20;99.90;;;;;;5066508;28;20412;-51
2020/12/17 20:39:41;;;;;;;1999.90;999.90;;;4.20;99.90;;;;;;5061821;28;20492;-51
2020/12/17 20:42:10;;;;;;;1999.90;999.90;;;4.20;99.90;;;;;;5067150;28;20208;-51
2020/12/17 20:44:37;;;;;;;1999.90;999.90;;;4.30;99.90;;;;;;5068507;28;20177;-51
2020/12/17 20:47:04;;;;;;;1999.90;999.90;;;4.30;99.90;;;;;;5068582;28;20435;-51
2020/12/17 20:49:30;;;;;;;1999.90;999.90;;;4.30;99.90;;;;;;5069039;28;20959;-51
2020/12/17 20:51:56;;;;;;;1999.90;999.90;;;4.30;99.90;;;;;;5069626;28;20419;-50
2020/12/17 20:54:21;;;;;;;1999.90;999.90;;;4.30;99.90;;;;;;5068779;28;20425;-51
2020/12/17 20:56:47;;;;;;;1999.90;999.90;;;4.20;99.90;;;;;;5067900;28;20212;-51
2020/12/17 20:59:12;;;;;;;1999.90;999.90;;;4.20;99.90;;;;;;5080308;28;20243;-51
2020/12/17 21:01:38;;;;;;;1999.90;999.90;;;4.10;99.90;;;;;;5068795;28;20696;-51
2020/12/17 21:04:04;;;;;;;1999.90;999.90;;;4.00;99.90;;;;;;5068786;28;20196;-50
2020/12/17 21:06:30;;;;;;;1999.90;999.90;;;3.80;99.90;;;;;;5064822;28;20202;-51
2020/12/17 21:08:56;;;;;;;1999.90;999.90;;;3.70;99.90;;;;;;5068088;28;20512;-51
2020/12/17 21:11:22;;;;;;;1999.90;999.90;;;3.50;99.90;;;;;;5067933;28;20442;-50
2020/12/17 21:13:50;;;;;;;1999.90;999.90;;;3.40;99.90;;;;;;5069205;28;20184;-50
2020/12/17 21:16:17;;;;;;;1999.90;999.90;;;3.60;99.90;;;;;;5068225;28;20494;-50
2020/12/17 21:18:44;;;;;;;1999.90;999.90;;;3.60;99.90;;;;;;5068293;28;20451;-49
2020/12/17 21:21:10;;;;;;;1999.90;999.90;;;3.80;99.90;;;;;;5065254;28;20466;-49
2020/12/17 21:23:37;;;;;;;1999.90;999.90;;;3.90;99.90;;;;;;5052815;28;20451;-51
2020/12/17 21:26:02;;;;;;;1999.90;999.90;;;4.00;99.90;;;;;;5058362;28;21176;-49
2020/12/17 21:28:28;;;;;;;1999.90;999.90;;;4.10;99.90;;;;;;5062332;28;20558;-48
2020/12/17 21:30:54;;;;;;;1999.90;999.90;;;4.20;99.90;;;;;;5064205;28;20176;-50
2020/12/17 21:33:20;;;;;;;1999.90;999.90;;;4.20;99.90;;;;;;5066575;28;20185;-49
2020/12/17 21:35:45;;;;;;;1999.90;999.90;;;4.30;99.90;;;;;;5066832;28;20178;-51
2020/12/17 21:38:11;;;;;;;1999.90;999.90;;;4.30;99.90;;;;;;5066880;28;20185;-49
2020/12/17 21:40:38;;;;;;;1999.90;999.90;;;4.40;99.90;;;;;;5065987;28;20177;-50
2020/12/17 21:43:04;;;;;;;1999.90;999.90;;;4.50;99.90;;;;;;5067752;28;20740;-48
2020/12/17 21:45:30;;;;;;;1999.90;999.90;;;4.40;99.90;;;;;;5066141;28;20494;-50
2020/12/17 21:47:57;;;;;;;1999.90;999.90;;;4.40;99.90;;;;;;5066617;28;20193;-49
2020/12/17 21:50:23;;;;;;;1999.90;999.90;;;4.30;99.90;;;;;;5067669;28;20440;-51
2020/12/17 21:52:49;;;;;;;1999.90;999.90;;;4.10;99.90;;;;;;5078573;28;20891;-49
2020/12/17 21:55:16;;;;;;;1999.90;999.90;;;4.00;99.90;;;;;;5066567;28;20451;-49
2020/12/17 21:57:48;;;;;;;1999.90;999.90;;;3.80;99.90;;;;;;5066831;28;20224;-49
2020/12/17 22:00:17;;;;;;;1999.90;999.90;;;3.60;99.90;;;;;;5048472;28;20963;-49
2020/12/17 22:02:43;;;;;;;1999.90;999.90;;;3.40;99.90;;;;;;5061663;28;20493;-52
2020/12/17 22:05:09;;;;;;;1999.90;999.90;;;3.20;99.90;;;;;;5066335;28;20498;-49
2020/12/17 22:07:36;;;;;;;1999.90;999.90;;;3.00;99.90;;;;;;5067314;28;20184;-49
2020/12/17 22:10:03;;;;;;;1999.90;999.90;;;2.70;99.90;;;;;;5066633;28;20549;-49
2020/12/17 22:12:28;;;;;;;1999.90;999.90;;;2.50;99.90;;;;;;5083169;28;20182;-51
2020/12/17 22:14:54;;;;;;;1999.90;999.90;;;2.30;99.90;;;;;;5087277;28;20439;-50
2020/12/17 22:17:21;;;;;;;1999.90;999.90;;;2.30;99.90;;;;;;5067433;28;20435;-49
2020/12/17 22:19:47;;;;;;;1999.90;999.90;;;2.20;99.90;;;;;;5066525;28;20612;-49
2020/12/17 22:22:13;;;;;;;1999.90;999.90;;;2.20;99.90;;;;;;5067280;28;20466;-49
2020/12/17 22:24:39;;;;;;;1999.90;999.90;;;2.40;99.90;;;;;;5066185;28;20504;-48
2020/12/17 22:27:04;;;;;;;1999.90;999.90;;;2.40;99.90;;;;;;5065336;28;20684;-49
2020/12/17 22:29:30;;;;;;;1999.90;999.90;;;2.40;99.90;;;;;;5067078;28;20571;-50
2020/12/17 22:31:56;;;;;;;1999.90;999.90;;;2.20;99.90;;;;;;5065860;28;20188;-50
2020/12/17 22:34:22;;;;;;;1999.90;999.90;;;2.10;99.90;;;;;;5066290;28;20503;-49
2020/12/17 22:36:48;;;;;;;1999.90;999.90;;;2.20;99.90;;;;;;5064911;28;20188;-49
2020/12/17 22:39:16;;;;;;;1999.90;999.90;;;2.30;99.90;;;;;;5063992;28;20576;-48
2020/12/17 22:41:42;;;;;;;1999.90;999.90;;;2.60;99.90;;;;;;5064792;28;20466;-49
2020/12/17 22:44:08;;;;;;;1999.90;999.90;;;2.80;99.90;;;;;;5065824;28;20529;-49
2020/12/17 22:46:36;;;;;;;1999.90;999.90;;;2.90;99.90;;;;;;5065931;28;20771;-49
2020/12/17 22:49:04;;;;;;;1999.90;999.90;;;3.00;99.90;;;;;;5067072;28;20559;-49
2020/12/17 22:51:32;;;;;;;1999.90;999.90;;;2.90;99.90;;;;;;5063567;28;20450;-49
2020/12/17 22:53:59;;;;;;;1999.90;999.90;;;2.90;99.90;;;;;;5065059;28;20486;-48
2020/12/17 22:56:31;;;;;;;1999.90;999.90;;;2.80;99.90;;;;;;5082598;28;20438;-49
2020/12/17 22:59:02;;;;;;;1999.90;999.90;;;2.70;99.90;;;;;;5065847;28;20464;-49
2020/12/17 23:01:32;;;;;;;1999.90;999.90;;;2.70;99.90;;;;;;5071967;28;20455;-51
2020/12/17 23:03:59;;;;;;;1999.90;999.90;;;2.80;99.90;;;;;;5060518;28;20443;-50
